Time;durP1;ratioP1;P1;durP2;ratioP2;P2;SDS_P1;SDS_P2;PMS_P1;PMS_P2;Temp;Humidity;BMP_temperature;BMP_pressure;BME280_temperature;BME280_humidity;BME280_pressure;Samples;Min_cycle;Max_cycle;Signal;HPM_P1;HPM_P2
2023/08/02 00:00:57;;;;;;;15.98;1.50;;;;;;;;;;6207755;23;20091;-69
2023/08/02 00:03:24;;;;;;;1.17;0.88;;;;;;;;;;6208025;23;20467;-69
2023/08/02 00:05:57;;;;;;;1.50;1.05;;;;;;;;;;6209389;23;20001;-69
2023/08/02 00:08:25;;;;;;;4.03;1.58;;;;;;;;;;6215817;23;20072;-69
2023/08/02 00:10:52;;;;;;;2.05;1.25;;;;;;;;;;6213864;23;20495;-69
2023/08/02 00:13:19;;;;;;;2.08;1.25;;;;;;;;;;6215626;23;20000;-70
2023/08/02 00:15:46;;;;;;;2.30;0.70;;;;;;;;;;6213688;23;20455;-68
2023/08/02 00:18:13;;;;;;;0.70;0.65;;;;;;;;;;6215861;23;20080;-69
2023/08/02 00:20:39;;;;;;;0.40;0.40;;;;;;;;;;6207904;23;20562;-68
2023/08/02 00:23:07;;;;;;;0.63;0.40;;;;;;;;;;6207974;23;20367;-69
2023/08/02 00:25:34;;;;;;;0.38;0.35;;;;;;;;;;6209363;23;20039;-69
2023/08/02 00:28:00;;;;;;;1.27;0.40;;;;;;;;;;6209221;23;20013;-69
2023/08/02 00:30:27;;;;;;;0.55;0.47;;;;;;;;;;6214603;23;20086;-68
2023/08/02 00:32:54;;;;;;;0.98;0.70;;;;;;;;;;6214918;23;20008;-68
2023/08/02 00:35:21;;;;;;;1.40;0.82;;;;;;;;;;6213952;23;20004;-70
2023/08/02 00:37:48;;;;;;;1.17;0.70;;;;;;;;;;6213510;23;20071;-69
2023/08/02 00:40:14;;;;;;;3.88;0.50;;;;;;;;;;6215661;23;20005;-69
2023/08/02 00:42:41;;;;;;;0.80;0.57;;;;;;;;;;6208194;23;20096;-68
2023/08/02 00:45:08;;;;;;;3.33;0.50;;;;;;;;;;6208916;23;20011;-69
2023/08/02 00:47:35;;;;;;;7.32;1.27;;;;;;;;;;6207388;23;20017;-69
2023/08/02 00:50:03;;;;;;;1.08;0.70;;;;;;;;;;6208641;23;20005;-69
2023/08/02 00:52:31;;;;;;;0.65;0.40;;;;;;;;;;6211878;23;20082;-69
2023/08/02 00:54:58;;;;;;;1.40;0.80;;;;;;;;;;6215311;23;20082;-70
2023/08/02 00:57:25;;;;;;;0.40;0.32;;;;;;;;;;6215439;23;20009;-69
2023/08/02 00:59:52;;;;;;;0.60;0.38;;;;;;;;;;6215390;23;20004;-70
2023/08/02 01:02:18;;;;;;;0.77;0.50;;;;;;;;;;6215106;23;20000;-69
2023/08/02 01:04:46;;;;;;;0.63;0.40;;;;;;;;;;6210508;23;20050;-70
2023/08/02 01:07:35;;;;;;;0.65;0.50;;;;;;;;;;6208679;23;20012;-69
2023/08/02 01:10:08;;;;;;;0.68;0.45;;;;;;;;;;6200816;23;20004;-70
2023/08/02 01:12:36;;;;;;;1.33;0.70;;;;;;;;;;6207467;23;20046;-70
2023/08/02 01:15:03;;;;;;;1.50;0.75;;;;;;;;;;6212808;23;20130;-69
2023/08/02 01:17:31;;;;;;;0.77;0.50;;;;;;;;;;6214484;23;20011;-69
2023/08/02 01:20:03;;;;;;;0.68;0.52;;;;;;;;;;6215088;23;20008;-68
2023/08/02 01:22:30;;;;;;;1.85;0.98;;;;;;;;;;6215227;23;20071;-69
2023/08/02 01:24:59;;;;;;;0.80;0.70;;;;;;;;;;6215015;23;20007;-68
2023/08/02 01:27:27;;;;;;;0.68;0.57;;;;;;;;;;6209300;23;20012;-69
2023/08/02 01:29:54;;;;;;;1.02;0.50;;;;;;;;;;6208403;23;20008;-69
2023/08/02 01:32:23;;;;;;;1.30;0.77;;;;;;;;;;6206515;23;20423;-69
2023/08/02 01:34:50;;;;;;;0.98;0.65;;;;;;;;;;6208482;23;20000;-69
2023/08/02 01:37:17;;;;;;;1.17;0.60;;;;;;;;;;6211930;23;20408;-68
2023/08/02 01:39:44;;;;;;;0.50;0.40;;;;;;;;;;6215005;23;20011;-69
2023/08/02 01:42:15;;;;;;;3.85;1.08;;;;;;;;;;6214821;23;20007;-68
2023/08/02 01:44:42;;;;;;;0.67;0.60;;;;;;;;;;6214997;23;20050;-68
2023/08/02 01:47:08;;;;;;;0.93;0.55;;;;;;;;;;6212749;23;20038;-68
2023/08/02 01:49:35;;;;;;;0.77;0.50;;;;;;;;;;6207929;23;20027;-68
2023/08/02 01:52:02;;;;;;;7.67;0.93;;;;;;;;;;6206508;23;20540;-69
2023/08/02 01:54:29;;;;;;;0.77;0.70;;;;;;;;;;6208495;23;20001;-69
2023/08/02 01:56:55;;;;;;;1.23;0.73;;;;;;;;;;6208480;23;20058;-68
2023/08/02 01:59:22;;;;;;;0.87;0.73;;;;;;;;;;6212596;23;20011;-68
2023/08/02 02:01:49;;;;;;;2.53;0.90;;;;;;;;;;6214266;23;20001;-68
2023/08/02 02:04:16;;;;;;;1.70;0.90;;;;;;;;;;6214902;23;20422;-68
2023/08/02 02:06:42;;;;;;;4.10;0.87;;;;;;;;;;6212717;23;20012;-69
2023/08/02 02:09:09;;;;;;;1.35;0.93;;;;;;;;;;6212804;23;20454;-69
2023/08/02 02:11:36;;;;;;;1.00;0.67;;;;;;;;;;6208743;23;20031;-69
2023/08/02 02:14:03;;;;;;;0.93;0.60;;;;;;;;;;6208548;23;20084;-69
2023/08/02 02:16:29;;;;;;;1.63;0.63;;;;;;;;;;6208493;23;20055;-68
2023/08/02 02:18:56;;;;;;;8.47;1.17;;;;;;;;;;6206449;23;20004;-68
2023/08/02 02:21:23;;;;;;;2.27;1.30;;;;;;;;;;6211428;23;20062;-69
2023/08/02 02:23:50;;;;;;;1.73;1.10;;;;;;;;;;6212527;23;20008;-69
2023/08/02 02:26:17;;;;;;;1.27;0.73;;;;;;;;;;6212730;23;20040;-68
2023/08/02 02:28:43;;;;;;;3.40;0.87;;;;;;;;;;6214410;23;20013;-68
2023/08/02 02:31:10;;;;;;;0.70;0.50;;;;;;;;;;6214607;23;20008;-69
2023/08/02 02:33:37;;;;;;;0.93;0.73;;;;;;;;;;6211265;23;20001;-69
2023/08/02 02:36:04;;;;;;;4.13;1.17;;;;;;;;;;6208228;23;20028;-68
2023/08/02 02:38:31;;;;;;;0.67;0.53;;;;;;;;;;6206568;23;20015;-68
2023/08/02 02:40:58;;;;;;;7.37;1.33;;;;;;;;;;6207903;23;20008;-67
2023/08/02 02:43:25;;;;;;;0.97;0.77;;;;;;;;;;6210618;23;20001;-69
2023/08/02 02:45:51;;;;;;;1.87;1.30;;;;;;;;;;6214128;23;20483;-68
2023/08/02 02:48:18;;;;;;;12.43;2.53;;;;;;;;;;6214550;23;20004;-68
2023/08/02 02:50:45;;;;;;;2.33;1.40;;;;;;;;;;6214487;23;20001;-68
2023/08/02 02:53:12;;;;;;;2.73;1.70;;;;;;;;;;6213202;23;20004;-69
2023/08/02 02:55:39;;;;;;;2.10;1.40;;;;;;;;;;6211613;23;20004;-69
2023/08/02 02:58:05;;;;;;;2.10;1.30;;;;;;;;;;6205858;23;20004;-69
2023/08/02 03:00:32;;;;;;;2.10;1.30;;;;;;;;;;6206271;23;20005;-69
2023/08/02 03:02:59;;;;;;;2.53;1.60;;;;;;;;;;6206340;23;20055;-68
2023/08/02 03:05:26;;;;;;;3.17;1.47;;;;;;;;;;6210108;23;20050;-68
2023/08/02 03:07:53;;;;;;;1.77;0.97;;;;;;;;;;6214219;23;20340;-68
2023/08/02 03:10:19;;;;;;;4.50;1.07;;;;;;;;;;6214353;23;20008;-69
2023/08/02 03:12:46;;;;;;;1.47;1.03;;;;;;;;;;6214273;23;20005;-69
2023/08/02 03:15:13;;;;;;;2.73;1.27;;;;;;;;;;6212206;23;20092;-68
2023/08/02 03:17:40;;;;;;;1.23;0.80;;;;;;;;;;6212262;23;20455;-68
2023/08/02 03:20:07;;;;;;;3.20;1.23;;;;;;;;;;6208051;23;20506;-68
2023/08/02 03:22:34;;;;;;;2.70;1.00;;;;;;;;;;6206826;23;20352;-68
2023/08/02 03:25:01;;;;;;;1.83;1.23;;;;;;;;;;6206373;23;20043;-69
2023/08/02 03:27:27;;;;;;;2.77;1.27;;;;;;;;;;6208724;23;20106;-69
2023/08/02 03:29:54;;;;;;;1.77;1.00;;;;;;;;;;6214836;23;20021;-68
2023/08/02 03:32:21;;;;;;;6.97;1.47;;;;;;;;;;6215666;23;20009;-69
2023/08/02 03:34:48;;;;;;;2.90;1.20;;;;;;;;;;6216098;23;20043;-69
2023/08/02 03:37:14;;;;;;;2.57;1.33;;;;;;;;;;6214412;23;20488;-68
2023/08/02 03:39:41;;;;;;;1.80;1.13;;;;;;;;;;6215117;23;20379;-68
2023/08/02 03:42:08;;;;;;;1.50;1.20;;;;;;;;;;6210080;23;20005;-68
2023/08/02 03:44:35;;;;;;;6.10;1.67;;;;;;;;;;6209788;23;20012;-68
2023/08/02 03:47:02;;;;;;;2.33;1.50;;;;;;;;;;6207882;23;20397;-68
2023/08/02 03:49:28;;;;;;;1.97;1.40;;;;;;;;;;6209057;23;20123;-67
2023/08/02 03:51:55;;;;;;;4.30;1.73;;;;;;;;;;6215830;23;20011;-68
2023/08/02 03:54:22;;;;;;;1.63;1.37;;;;;;;;;;6214554;23;20100;-68
2023/08/02 03:56:49;;;;;;;3.93;1.83;;;;;;;;;;6216035;23;20004;-68
2023/08/02 03:59:15;;;;;;;1.93;1.27;;;;;;;;;;6214381;23;20092;-69
2023/08/02 04:01:42;;;;;;;3.37;1.67;;;;;;;;;;6215855;23;20005;-68
2023/08/02 04:04:09;;;;;;;2.33;1.60;;;;;;;;;;6207842;23;20339;-68
2023/08/02 04:06:36;;;;;;;3.13;1.80;;;;;;;;;;6209337;23;20087;-67
2023/08/02 04:09:03;;;;;;;2.00;1.40;;;;;;;;;;6207808;23;20004;-68
2023/08/02 04:11:31;;;;;;;13.97;1.83;;;;;;;;;;6209448;23;20706;-68
2023/08/02 04:13:57;;;;;;;3.70;2.17;;;;;;;;;;6215386;23;20005;-68
2023/08/02 04:16:24;;;;;;;1.37;1.10;;;;;;;;;;6215585;23;20080;-68
2023/08/02 04:18:51;;;;;;;5.50;2.47;;;;;;;;;;6215892;23;20000;-69
2023/08/02 04:21:19;;;;;;;4.17;2.40;;;;;;;;;;6215790;23;20043;-68
2023/08/02 04:23:47;;;;;;;6.63;2.60;;;;;;;;;;6215346;23;20021;-67
2023/08/02 04:26:14;;;;;;;4.53;1.87;;;;;;;;;;6209623;23;20008;-68
2023/08/02 04:28:41;;;;;;;7.67;1.93;;;;;;;;;;6209273;23;20011;-68
2023/08/02 04:31:08;;;;;;;11.53;1.80;;;;;;;;;;6209436;23;20005;-67
2023/08/02 04:33:35;;;;;;;5.60;1.77;;;;;;;;;;6209566;23;20060;-68
2023/08/02 04:36:01;;;;;;;6.07;1.57;;;;;;;;;;6212176;23;20005;-68
2023/08/02 04:38:29;;;;;;;3.13;1.60;;;;;;;;;;6215655;23;20010;-68
2023/08/02 04:40:57;;;;;;;3.60;2.43;;;;;;;;;;6214982;23;20008;-68
2023/08/02 04:43:24;;;;;;;1.87;1.40;;;;;;;;;;6214969;23;20332;-68
2023/08/02 04:45:51;;;;;;;2.63;1.67;;;;;;;;;;6216029;23;20028;-68
2023/08/02 04:48:18;;;;;;;2.57;1.80;;;;;;;;;;6210524;23;20009;-68
2023/08/02 04:50:44;;;;;;;4.00;2.37;;;;;;;;;;6209114;23;20008;-68
2023/08/02 04:53:11;;;;;;;5.43;1.87;;;;;;;;;;6209028;23;20380;-68
2023/08/02 04:55:42;;;;;;;2.90;1.83;;;;;;;;;;6209096;23;20009;-68
2023/08/02 04:58:09;;;;;;;1.17;1.00;;;;;;;;;;6213210;23;20434;-68
2023/08/02 05:00:36;;;;;;;10.33;2.50;;;;;;;;;;6215147;23;20012;-68
2023/08/02 05:03:03;;;;;;;4.57;2.07;;;;;;;;;;6215435;23;20442;-69
2023/08/02 05:05:30;;;;;;;2.57;1.67;;;;;;;;;;6215111;23;20476;-68
2023/08/02 05:07:57;;;;;;;9.03;2.37;;;;;;;;;;6215324;23;20012;-68
2023/08/02 05:10:23;;;;;;;2.33;1.67;;;;;;;;;;6210986;23;20004;-68
2023/08/02 05:12:50;;;;;;;2.37;1.37;;;;;;;;;;6207361;23;20008;-68
2023/08/02 05:15:17;;;;;;;7.87;1.90;;;;;;;;;;6208500;23;20004;-68
2023/08/02 05:17:44;;;;;;;2.57;1.30;;;;;;;;;;6207063;23;20420;-71
2023/08/02 05:20:11;;;;;;;4.83;1.33;;;;;;;;;;6212339;23;20000;-73
2023/08/02 05:22:38;;;;;;;1.77;1.00;;;;;;;;;;6215550;23;20021;-73
2023/08/02 05:25:04;;;;;;;1.40;0.73;;;;;;;;;;6215324;23;20009;-72
2023/08/02 05:27:31;;;;;;;21.40;2.07;;;;;;;;;;6214961;23;20032;-71
2023/08/02 05:29:58;;;;;;;1.30;0.83;;;;;;;;;;6214870;23;20448;-71
2023/08/02 05:32:25;;;;;;;1.60;0.70;;;;;;;;;;6211055;23;20015;-71
2023/08/02 05:34:52;;;;;;;1.77;1.00;;;;;;;;;;6208359;23;20131;-72
2023/08/02 05:37:20;;;;;;;3.13;0.80;;;;;;;;;;6208589;23;20001;-71
2023/08/02 05:39:47;;;;;;;5.00;0.47;;;;;;;;;;6209077;23;20000;-71
2023/08/02 05:42:13;;;;;;;2.30;0.43;;;;;;;;;;6211827;23;20009;-69
2023/08/02 05:44:40;;;;;;;0.87;0.40;;;;;;;;;;6211683;23;20015;-70
2023/08/02 05:47:07;;;;;;;1.13;0.53;;;;;;;;;;6214787;23;20395;-73
2023/08/02 05:49:34;;;;;;;0.83;0.63;;;;;;;;;;6212721;23;20141;-71
2023/08/02 05:52:00;;;;;;;0.90;0.47;;;;;;;;;;6213442;23;20050;-70
2023/08/02 05:54:27;;;;;;;1.90;0.70;;;;;;;;;;6210131;23;20019;-70
2023/08/02 05:56:54;;;;;;;0.30;0.30;;;;;;;;;;6207008;23;20005;-69
2023/08/02 05:59:21;;;;;;;0.77;0.53;;;;;;;;;;6208448;23;20004;-70
2023/08/02 06:01:48;;;;;;;2.73;1.20;;;;;;;;;;6208193;23;20439;-70
2023/08/02 06:04:15;;;;;;;2.87;0.57;;;;;;;;;;6208800;23;20004;-69
2023/08/02 06:06:42;;;;;;;1.50;0.87;;;;;;;;;;6213772;23;20016;-70
2023/08/02 06:09:08;;;;;;;0.80;0.47;;;;;;;;;;6214385;23;20000;-70
2023/08/02 06:11:35;;;;;;;1.03;0.67;;;;;;;;;;6214394;23;20007;-69
2023/08/02 06:14:02;;;;;;;0.30;0.30;;;;;;;;;;6214655;23;20050;-69
2023/08/02 06:16:29;;;;;;;0.90;0.60;;;;;;;;;;6211061;23;20009;-69
2023/08/02 06:18:56;;;;;;;0.87;0.40;;;;;;;;;;6206602;23;20040;-69
2023/08/02 06:21:26;;;;;;;1.33;0.80;;;;;;;;;;6207024;23;20004;-69
2023/08/02 06:23:52;;;;;;;0.70;0.47;;;;;;;;;;6208240;23;20004;-70
2023/08/02 06:26:19;;;;;;;1.43;0.80;;;;;;;;;;6209463;23;20124;-69
2023/08/02 06:28:46;;;;;;;4.00;1.20;;;;;;;;;;6212902;23;20396;-69
2023/08/02 06:31:13;;;;;;;0.60;0.60;;;;;;;;;;6212723;23;20032;-70
2023/08/02 06:33:40;;;;;;;1.23;0.73;;;;;;;;;;6214651;23;20039;-70
2023/08/02 06:36:07;;;;;;;1.20;0.77;;;;;;;;;;6214575;23;20015;-70
2023/08/02 06:38:33;;;;;;;3.20;0.47;;;;;;;;;;6213235;23;20001;-69
2023/08/02 06:41:00;;;;;;;1.60;0.70;;;;;;;;;;6207640;23;20004;-70
2023/08/02 06:43:27;;;;;;;0.43;0.30;;;;;;;;;;6208031;23;20008;-70
2023/08/02 06:45:54;;;;;;;1.30;0.57;;;;;;;;;;6207632;23;20009;-70
2023/08/02 06:48:23;;;;;;;1.20;0.77;;;;;;;;;;6207892;23;20054;-70
2023/08/02 06:50:50;;;;;;;0.47;0.40;;;;;;;;;;6212886;23;20009;-70
2023/08/02 06:53:17;;;;;;;0.70;0.57;;;;;;;;;;6214337;23;20084;-69
2023/08/02 06:55:44;;;;;;;0.80;0.50;;;;;;;;;;6214373;23;20447;-69
2023/08/02 06:58:11;;;;;;;1.70;0.93;;;;;;;;;;6214371;23;20355;-71
2023/08/02 07:00:37;;;;;;;0.87;0.60;;;;;;;;;;6213521;23;20058;-71
2023/08/02 07:03:05;;;;;;;1.23;0.87;;;;;;;;;;6207994;23;20320;-70
2023/08/02 07:05:34;;;;;;;2.27;0.57;;;;;;;;;;6209285;23;20005;-71
2023/08/02 07:08:02;;;;;;;0.50;0.40;;;;;;;;;;6210149;23;20108;-71
2023/08/02 07:10:29;;;;;;;2.43;0.73;;;;;;;;;;6210106;23;20004;-71
2023/08/02 07:12:57;;;;;;;3.13;0.83;;;;;;;;;;6216080;23;20416;-70
2023/08/02 07:15:23;;;;;;;1.43;0.60;;;;;;;;;;6216453;23;20532;-70
2023/08/02 07:17:50;;;;;;;4.97;0.80;;;;;;;;;;6215971;23;20001;-70
2023/08/02 07:20:18;;;;;;;2.33;0.63;;;;;;;;;;6215378;23;20498;-70
2023/08/02 07:22:45;;;;;;;1.73;0.60;;;;;;;;;;6214537;23;20110;-70
2023/08/02 07:25:12;;;;;;;1.30;0.47;;;;;;;;;;6210401;23;20004;-70
2023/08/02 07:27:39;;;;;;;0.83;0.53;;;;;;;;;;6210413;23;20070;-69
2023/08/02 07:30:06;;;;;;;0.73;0.30;;;;;;;;;;6209296;23;20013;-70
2023/08/02 07:32:33;;;;;;;0.57;0.40;;;;;;;;;;6208367;23;20063;-69
2023/08/02 07:34:59;;;;;;;0.30;0.10;;;;;;;;;;6213722;23;20004;-70
2023/08/02 07:37:26;;;;;;;0.73;0.50;;;;;;;;;;6216387;23;20131;-70
2023/08/02 07:39:53;;;;;;;1.90;0.63;;;;;;;;;;6216178;23;20011;-69
2023/08/02 07:42:20;;;;;;;0.83;0.37;;;;;;;;;;6216066;23;20005;-69
2023/08/02 07:45:09;;;;;;;0.77;0.60;;;;;;;;;;6214645;23;20009;-70
2023/08/02 07:47:37;;;;;;;2.27;0.67;;;;;;;;;;6209701;23;20371;-69
2023/08/02 07:50:04;;;;;;;1.53;0.47;;;;;;;;;;6209731;23;20051;-69
2023/08/02 07:52:31;;;;;;;0.60;0.40;;;;;;;;;;6209312;23;20323;-69
2023/08/02 07:54:57;;;;;;;0.60;0.43;;;;;;;;;;6208147;23;20384;-69
2023/08/02 07:57:25;;;;;;;2.47;0.77;;;;;;;;;;6215494;23;20103;-69
2023/08/02 07:59:52;;;;;;;3.97;0.70;;;;;;;;;;6216192;23;20420;-69
2023/08/02 08:02:20;;;;;;;0.60;0.40;;;;;;;;;;6215925;23;20146;-69
2023/08/02 08:04:47;;;;;;;1.80;0.83;;;;;;;;;;6216011;23;20004;-70
2023/08/02 08:07:14;;;;;;;0.80;0.50;;;;;;;;;;6214357;23;20248;-70
2023/08/02 08:09:40;;;;;;;1.00;0.53;;;;;;;;;;6209558;23;20004;-70
2023/08/02 08:12:07;;;;;;;1.60;0.73;;;;;;;;;;6208136;23;20084;-70
2023/08/02 08:14:34;;;;;;;0.30;0.27;;;;;;;;;;6209403;23;20059;-70
2023/08/02 08:17:01;;;;;;;0.63;0.40;;;;;;;;;;6209001;23;20087;-70
2023/08/02 08:19:29;;;;;;;0.80;0.50;;;;;;;;;;6213283;23;20013;-70
2023/08/02 08:21:56;;;;;;;1.97;1.00;;;;;;;;;;6215451;23;20016;-69
2023/08/02 08:24:23;;;;;;;0.83;0.70;;;;;;;;;;6215914;23;20009;-69
2023/08/02 08:26:52;;;;;;;0.53;0.40;;;;;;;;;;6215499;23;20364;-70
2023/08/02 08:29:19;;;;;;;1.83;0.93;;;;;;;;;;6215713;23;20353;-70
2023/08/02 08:31:45;;;;;;;0.60;0.53;;;;;;;;;;6209310;23;20247;-69
2023/08/02 08:34:13;;;;;;;0.80;0.63;;;;;;;;;;6207830;23;20015;-70
2023/08/02 08:36:40;;;;;;;0.40;0.40;;;;;;;;;;6209288;23;20008;-69
2023/08/02 08:39:07;;;;;;;1.10;0.70;;;;;;;;;;6209252;23;20007;-70
2023/08/02 08:41:34;;;;;;;0.57;0.40;;;;;;;;;;6214427;23;20009;-70
2023/08/02 08:44:04;;;;;;;1.90;0.50;;;;;;;;;;6213796;23;20332;-71
2023/08/02 08:46:34;;;;;;;2.87;0.80;;;;;;;;;;6215349;23;20326;-70
2023/08/02 08:49:01;;;;;;;1.13;0.70;;;;;;;;;;6215657;23;20104;-70
2023/08/02 08:51:28;;;;;;;2.40;1.17;;;;;;;;;;6215471;23;20008;-70
2023/08/02 08:53:57;;;;;;;0.47;0.47;;;;;;;;;;6208459;23;20368;-69
2023/08/02 08:56:25;;;;;;;1.77;0.90;;;;;;;;;;6208941;23;20505;-69
2023/08/02 08:58:53;;;;;;;1.67;1.13;;;;;;;;;;6209167;23;20004;-71
2023/08/02 09:01:20;;;;;;;1.83;0.77;;;;;;;;;;6209142;23;20011;-68
2023/08/02 09:03:47;;;;;;;1.37;0.93;;;;;;;;;;6213111;23;20001;-69
2023/08/02 09:06:17;;;;;;;1.80;0.70;;;;;;;;;;6214116;23;20004;-69
2023/08/02 09:08:44;;;;;;;0.40;0.40;;;;;;;;;;6215293;23;20004;-69
2023/08/02 09:11:12;;;;;;;0.93;0.57;;;;;;;;;;6215246;23;20084;-69
2023/08/02 09:13:39;;;;;;;2.27;0.70;;;;;;;;;;6213781;23;20005;-69
2023/08/02 09:16:06;;;;;;;6.03;1.30;;;;;;;;;;6209677;23;20071;-68
2023/08/02 09:18:36;;;;;;;1.77;1.13;;;;;;;;;;6206601;23;20013;-68
2023/08/02 09:21:03;;;;;;;0.77;0.60;;;;;;;;;;6208753;23;20011;-69
2023/08/02 09:23:30;;;;;;;1.17;0.80;;;;;;;;;;6209050;23;20004;-68
2023/08/02 09:26:13;;;;;;;1.67;1.10;;;;;;;;;;6213167;23;20075;-69
2023/08/02 09:28:41;;;;;;;2.37;1.20;;;;;;;;;;6214971;23;20036;-69
2023/08/02 09:31:17;;;;;;;1.53;1.03;;;;;;;;;;6212978;23;20012;-69
2023/08/02 09:33:51;;;;;;;1.47;1.07;;;;;;;;;;6214813;23;20013;-69
2023/08/02 09:36:36;;;;;;;1.23;0.90;;;;;;;;;;6214949;23;20001;-68
2023/08/02 09:39:18;;;;;;;4.97;1.02;;;;;;;;;;6208261;23;21111;-68
2023/08/02 09:41:45;;;;;;;3.57;1.27;;;;;;;;;;6207056;23;20487;-69
2023/08/02 09:44:20;;;;;;;1.67;1.03;;;;;;;;;;6208676;23;20416;-69
2023/08/02 09:46:47;;;;;;;1.52;1.33;;;;;;;;;;6208822;23;20040;-69
2023/08/02 09:49:17;;;;;;;3.77;0.90;;;;;;;;;;6215032;23;20011;-71
2023/08/02 09:51:45;;;;;;;0.83;0.70;;;;;;;;;;6214641;23;20036;-71
2023/08/02 09:54:13;;;;;;;7.83;1.60;;;;;;;;;;6215143;23;20087;-71
2023/08/02 09:56:41;;;;;;;4.40;1.37;;;;;;;;;;6213213;23;20372;-71
2023/08/02 09:59:08;;;;;;;1.10;0.90;;;;;;;;;;6214103;23;20076;-71
2023/08/02 10:01:36;;;;;;;1.07;0.73;;;;;;;;;;6208647;23;20001;-71
2023/08/02 10:04:03;;;;;;;1.67;1.20;;;;;;;;;;6207101;23;20518;-71
2023/08/02 10:06:34;;;;;;;1.70;1.23;;;;;;;;;;6207778;23;20009;-71
2023/08/02 10:09:05;;;;;;;3.87;1.30;;;;;;;;;;6208421;23;20154;-71
2023/08/02 10:11:50;;;;;;;1.60;1.13;;;;;;;;;;6214682;23;20447;-72
2023/08/02 10:14:16;;;;;;;0.45;0.45;;;;;;;;;;6213143;23;20028;-71
2023/08/02 10:16:44;;;;;;;0.87;0.70;;;;;;;;;;6214477;23;20005;-71
2023/08/02 10:19:12;;;;;;;1.50;1.07;;;;;;;;;;6214524;23;20080;-71
2023/08/02 10:21:40;;;;;;;1.43;0.77;;;;;;;;;;6213224;23;20001;-71
2023/08/02 10:24:06;;;;;;;0.60;0.60;;;;;;;;;;6208825;23;20001;-70
2023/08/02 10:26:33;;;;;;;5.73;1.17;;;;;;;;;;6208462;23;20062;-71
2023/08/02 10:29:02;;;;;;;2.90;1.20;;;;;;;;;;6207893;23;20009;-70
2023/08/02 10:31:29;;;;;;;4.23;1.37;;;;;;;;;;6207368;23;20352;-70
2023/08/02 10:33:56;;;;;;;0.97;0.67;;;;;;;;;;6215134;23;20412;-70
2023/08/02 10:36:23;;;;;;;1.40;0.97;;;;;;;;;;6214744;23;20004;-70
2023/08/02 10:38:53;;;;;;;1.03;0.80;;;;;;;;;;6214405;23;20004;-70
2023/08/02 10:41:19;;;;;;;2.33;1.20;;;;;;;;;;6214482;23;20001;-69
2023/08/02 10:44:00;;;;;;;1.43;0.90;;;;;;;;;;6213217;23;20000;-70
2023/08/02 10:46:32;;;;;;;2.00;1.00;;;;;;;;;;6207679;23;20012;-69
2023/08/02 10:49:11;;;;;;;2.30;0.90;;;;;;;;;;6208082;23;20000;-70
2023/08/02 10:51:38;;;;;;;1.37;0.63;;;;;;;;;;6206684;23;20005;-70
2023/08/02 10:54:23;;;;;;;10.87;0.97;;;;;;;;;;6209724;23;20001;-69
2023/08/02 10:56:50;;;;;;;2.63;1.23;;;;;;;;;;6214644;23;20004;-69
2023/08/02 10:59:17;;;;;;;3.23;1.23;;;;;;;;;;6214384;23;20005;-69
2023/08/02 11:02:10;;;;;;;1.77;1.23;;;;;;;;;;6214807;23;20416;-70
2023/08/02 11:04:38;;;;;;;0.90;0.73;;;;;;;;;;6211213;23;20439;-68
2023/08/02 11:07:18;;;;;;;3.27;0.90;;;;;;;;;;6209101;23;20040;-69
2023/08/02 11:09:46;;;;;;;1.70;1.17;;;;;;;;;;6208214;23;20005;-69
2023/08/02 11:12:14;;;;;;;6.13;1.20;;;;;;;;;;6206495;23;20012;-69
2023/08/02 11:14:48;;;;;;;0.60;0.53;;;;;;;;;;6208268;23;20363;-69
2023/08/02 11:17:18;;;;;;;1.53;1.17;;;;;;;;;;6211994;23;20028;-70
2023/08/02 11:19:49;;;;;;;3.30;1.60;;;;;;;;;;6214513;23;20011;-69
2023/08/02 11:22:16;;;;;;;0.93;0.67;;;;;;;;;;6214067;23;20004;-69
2023/08/02 11:25:00;;;;;;;2.50;0.97;;;;;;;;;;6213809;23;20415;-70
2023/08/02 11:27:27;;;;;;;1.20;0.80;;;;;;;;;;6213742;23;20066;-69
2023/08/02 11:30:08;;;;;;;0.97;0.47;;;;;;;;;;6208901;23;20013;-69
2023/08/02 11:32:42;;;;;;;1.40;0.97;;;;;;;;;;6208313;23;20079;-70
2023/08/02 11:35:09;;;;;;;2.20;1.02;;;;;;;;;;6207954;23;20009;-69
2023/08/02 11:37:39;;;;;;;1.17;0.97;;;;;;;;;;6207766;23;20005;-68
2023/08/02 11:40:07;;;;;;;0.20;0.20;;;;;;;;;;6213290;23;20007;-70
2023/08/02 11:42:34;;;;;;;30.07;1.33;;;;;;;;;;6214367;23;20007;-69
2023/08/02 11:45:00;;;;;;;3.20;1.37;;;;;;;;;;6214371;23;20000;-70
2023/08/02 11:47:35;;;;;;;0.97;0.60;;;;;;;;;;6214216;23;20009;-69
2023/08/02 11:50:02;;;;;;;0.40;0.35;;;;;;;;;;6214180;23;20012;-69
2023/08/02 11:52:30;;;;;;;3.03;0.83;;;;;;;;;;6208342;23;20007;-69
2023/08/02 11:54:57;;;;;;;0.40;0.40;;;;;;;;;;6208078;23;20464;-69
2023/08/02 11:57:25;;;;;;;0.10;0.10;;;;;;;;;;6209731;23;20004;-69
2023/08/02 11:59:53;;;;;;;0.60;0.40;;;;;;;;;;6209651;23;20016;-69
2023/08/02 12:02:36;;;;;;;0.97;0.60;;;;;;;;;;6214686;23;20020;-69
2023/08/02 12:05:08;;;;;;;0.33;0.20;;;;;;;;;;6215573;23;20072;-68
2023/08/02 12:07:35;;;;;;;0.63;0.47;;;;;;;;;;6215903;23;20017;-69
2023/08/02 12:10:05;;;;;;;0.30;0.30;;;;;;;;;;6215626;23;20008;-69
2023/08/02 12:12:32;;;;;;;0.57;0.50;;;;;;;;;;6215632;23;20005;-69
2023/08/02 12:15:09;;;;;;;0.47;0.43;;;;;;;;;;6207942;23;20062;-69
2023/08/02 12:17:36;;;;;;;0.50;0.30;;;;;;;;;;6209355;23;20027;-69
2023/08/02 12:20:03;;;;;;;0.30;0.20;;;;;;;;;;6208131;23;20031;-69
2023/08/02 12:22:30;;;;;;;2.73;0.50;;;;;;;;;;6209330;23;20009;-69
2023/08/02 12:25:04;;;;;;;0.20;0.20;;;;;;;;;;6215633;23;20011;-68
2023/08/02 12:27:31;;;;;;;0.40;0.40;;;;;;;;;;6215383;23;20083;-69
2023/08/02 12:30:11;;;;;;;0.43;0.40;;;;;;;;;;6215468;23;20040;-68
2023/08/02 12:32:38;;;;;;;0.50;0.30;;;;;;;;;;6215858;23;20011;-69
2023/08/02 12:35:08;;;;;;;0.20;0.20;;;;;;;;;;6214776;23;20001;-69
2023/08/02 12:37:35;;;;;;;0.40;0.33;;;;;;;;;;6209523;23;20004;-69
2023/08/02 12:40:03;;;;;;;0.07;0.07;;;;;;;;;;6209129;23;20004;-68
2023/08/02 12:42:31;;;;;;;0.47;0.40;;;;;;;;;;6209425;23;20055;-69
2023/08/02 12:44:57;;;;;;;0.47;0.30;;;;;;;;;;6208597;23;20005;-68
2023/08/02 12:47:24;;;;;;;0.27;0.20;;;;;;;;;;6213831;23;20099;-68
2023/08/02 12:49:51;;;;;;;0.20;0.20;;;;;;;;;;6215529;23;20009;-69
2023/08/02 12:52:18;;;;;;;0.73;0.50;;;;;;;;;;6215559;23;20016;-68
2023/08/02 12:54:44;;;;;;;0.70;0.33;;;;;;;;;;6215307;23;20083;-68
2023/08/02 12:57:11;;;;;;;1.70;0.60;;;;;;;;;;6215019;23;20006;-69
2023/08/02 12:59:38;;;;;;;0.77;0.50;;;;;;;;;;6207762;23;20016;-68
2023/08/02 13:02:05;;;;;;;0.50;0.50;;;;;;;;;;6208507;23;20015;-68
2023/08/02 13:04:32;;;;;;;0.60;0.40;;;;;;;;;;6208972;23;20023;-68
2023/08/02 13:06:58;;;;;;;2.90;1.03;;;;;;;;;;6208753;23;20142;-68
2023/08/02 13:09:25;;;;;;;1.27;0.60;;;;;;;;;;6215126;23;20004;-68
2023/08/02 13:11:53;;;;;;;1.63;0.43;;;;;;;;;;6215391;23;20086;-69
2023/08/02 13:14:19;;;;;;;2.57;0.67;;;;;;;;;;6215277;23;20490;-69
2023/08/02 13:16:46;;;;;;;0.40;0.33;;;;;;;;;;6215401;23;20004;-69
2023/08/02 13:19:13;;;;;;;1.00;0.57;;;;;;;;;;6214789;23;20067;-69
2023/08/02 13:21:40;;;;;;;1.90;1.07;;;;;;;;;;6207189;23;20438;-69
2023/08/02 13:24:06;;;;;;;0.43;0.30;;;;;;;;;;6207173;23;20008;-68
2023/08/02 13:26:33;;;;;;;2.23;0.47;;;;;;;;;;6207087;23;20019;-69
2023/08/02 13:29:00;;;;;;;0.87;0.50;;;;;;;;;;6206810;23;20074;-69
2023/08/02 13:31:27;;;;;;;1.17;0.70;;;;;;;;;;6214194;23;20004;-70
2023/08/02 13:33:54;;;;;;;0.30;0.20;;;;;;;;;;6215146;23;20009;-68
2023/08/02 13:36:20;;;;;;;0.53;0.40;;;;;;;;;;6213063;23;20067;-69
2023/08/02 13:38:47;;;;;;;0.13;0.13;;;;;;;;;;6214911;23;20080;-69
2023/08/02 13:41:14;;;;;;;0.40;0.20;;;;;;;;;;6214869;23;20004;-69
2023/08/02 13:43:41;;;;;;;0.80;0.50;;;;;;;;;;6209131;23;20028;-69
2023/08/02 13:46:07;;;;;;;1.93;0.30;;;;;;;;;;6208554;23;20001;-69
2023/08/02 13:48:34;;;;;;;0.20;0.20;;;;;;;;;;6208665;23;20012;-69
2023/08/02 13:51:01;;;;;;;0.30;0.30;;;;;;;;;;6208095;23;20034;-68
2023/08/02 13:53:28;;;;;;;0.40;0.20;;;;;;;;;;6213266;23;20007;-70
2023/08/02 13:55:56;;;;;;;0.80;0.40;;;;;;;;;;6214939;23;20376;-69
2023/08/02 13:58:24;;;;;;;0.07;0.07;;;;;;;;;;6213285;23;20008;-69
2023/08/02 14:00:51;;;;;;;0.10;0.10;;;;;;;;;;6213007;23;20005;-68
2023/08/02 14:03:18;;;;;;;0.20;0.13;;;;;;;;;;6214716;23;20008;-69
2023/08/02 14:05:45;;;;;;;10.17;0.50;;;;;;;;;;6207920;23;20031;-68
2023/08/02 14:08:11;;;;;;;1.00;0.30;;;;;;;;;;6206188;23;20017;-67
2023/08/02 14:10:40;;;;;;;0.10;0.10;;;;;;;;;;6206836;23;20008;-67
2023/08/02 14:13:06;;;;;;;0.07;0.07;;;;;;;;;;6206425;23;20110;-68
2023/08/02 14:15:33;;;;;;;0.17;0.17;;;;;;;;;;6212911;23;20011;-67
2023/08/02 14:18:00;;;;;;;1.50;0.30;;;;;;;;;;6212954;23;20056;-67
2023/08/02 14:20:27;;;;;;;0.97;0.37;;;;;;;;;;6214667;23;20061;-67
2023/08/02 14:22:54;;;;;;;0.10;0.10;;;;;;;;;;6214799;23;20005;-67
2023/08/02 14:25:21;;;;;;;0.30;0.20;;;;;;;;;;6214569;23;20005;-67
2023/08/02 14:27:48;;;;;;;0.50;0.37;;;;;;;;;;6208184;23;20016;-68
2023/08/02 14:30:15;;;;;;;1.90;0.27;;;;;;;;;;6208006;23;20023;-68
2023/08/02 14:32:41;;;;;;;0.40;0.27;;;;;;;;;;6207725;23;20001;-68
2023/08/02 14:35:08;;;;;;;0.20;0.20;;;;;;;;;;6208449;23;20094;-68
2023/08/02 14:37:35;;;;;;;0.50;0.30;;;;;;;;;;6212226;23;20000;-68
2023/08/02 14:40:03;;;;;;;0.43;0.40;;;;;;;;;;6213996;23;20001;-68
2023/08/02 14:42:29;;;;;;;1.07;0.50;;;;;;;;;;6214404;23;20001;-68
2023/08/02 14:44:56;;;;;;;0.40;0.30;;;;;;;;;;6214716;23;20079;-68
2023/08/02 14:47:23;;;;;;;0.50;0.30;;;;;;;;;;6212577;23;20440;-68